Time;durP1;ratioP1;P1;durP2;ratioP2;P2;SDS_P1;SDS_P2;PMS_P1;PMS_P2;Temp;Humidity;BMP_temperature;BMP_pressure;BME280_temperature;BME280_humidity;BME280_pressure;Samples;Min_cycle;Max_cycle;Signal;HPM_P1;HPM_P2
2021/07/27 00:01:56;;;;;;;8.30;6.10;;;;;;;18.02;100.00;100230.88;5013522;28;20057;-65
2021/07/27 00:04:40;;;;;;;10.35;6.15;;;;;;;17.98;100.00;100230.41;4999070;28;20053;-65
2021/07/27 00:07:27;;;;;;;8.23;5.43;;;;;;;18.02;100.00;100226.28;5013285;28;20096;-65
2021/07/27 00:10:11;;;;;;;11.20;5.97;;;;;;;17.96;100.00;100226.22;5013399;28;20440;-65
2021/07/27 00:12:55;;;;;;;7.68;6.07;;;;;;;17.92;100.00;100228.47;5012856;28;20068;-65
2021/07/27 00:15:39;;;;;;;7.28;5.65;;;;;;;17.89;100.00;100226.16;5013096;28;20101;-64
2021/07/27 00:18:23;;;;;;;5.88;5.10;;;;;;;17.87;100.00;100228.22;4999469;28;20050;-65
2021/07/27 00:21:07;;;;;;;8.20;4.85;;;;;;;17.85;100.00;100229.44;4999021;28;20428;-65
2021/07/27 00:23:51;;;;;;;7.00;5.57;;;;;;;17.78;100.00;100223.97;5013053;28;20057;-65
2021/07/27 00:26:35;;;;;;;7.07;5.45;;;;;;;17.71;100.00;100228.44;5012762;28;20053;-65
2021/07/27 00:29:19;;;;;;;7.55;4.60;;;;;;;17.63;100.00;100236.69;5012739;28;20419;-65
2021/07/27 00:32:03;;;;;;;9.13;6.32;;;;;;;17.60;100.00;100231.66;4998970;28;20052;-65
2021/07/27 00:34:47;;;;;;;9.27;5.80;;;;;;;17.60;100.00;100236.22;4998737;28;20049;-65
2021/07/27 00:37:33;;;;;;;7.38;5.55;;;;;;;17.59;100.00;100245.34;4998772;28;20176;-65
2021/07/27 00:40:18;;;;;;;9.07;6.22;;;;;;;17.57;100.00;100248.22;5012865;28;20046;-65
2021/07/27 00:43:05;;;;;;;8.30;5.63;;;;;;;17.64;100.00;100241.03;5012792;28;20052;-65
2021/07/27 00:45:49;;;;;;;8.35;5.47;;;;;;;17.59;100.00;100246.16;4999024;28;20512;-65
2021/07/27 00:48:33;;;;;;;8.98;6.30;;;;;;;17.53;100.00;100241.53;5010428;28;20577;-65
2021/07/27 00:51:17;;;;;;;10.45;5.32;;;;;;;17.49;100.00;100251.00;5009877;28;20125;-65
2021/07/27 00:54:01;;;;;;;8.80;5.22;;;;;;;17.42;100.00;100250.09;5009891;28;20053;-65
2021/07/27 00:56:45;;;;;;;5.43;4.72;;;;;;;17.39;100.00;100249.66;5009257;28;20089;-65
2021/07/27 00:59:29;;;;;;;13.30;6.85;;;;;;;17.40;100.00;100257.53;5009385;28;20104;-65
2021/07/27 01:02:13;;;;;;;8.82;7.20;;;;;;;17.38;100.00;100254.19;4995569;28;20526;-65
2021/07/27 01:04:58;;;;;;;7.38;5.53;;;;;;;17.36;100.00;100244.59;5009462;28;20049;-65
2021/07/27 01:07:42;;;;;;;7.85;5.60;;;;;;;17.30;100.00;100240.78;5009364;28;20148;-65
2021/07/27 01:10:26;;;;;;;9.95;5.97;;;;;;;17.25;100.00;100242.38;4995206;28;20045;-65
2021/07/27 01:13:10;;;;;;;8.48;6.03;;;;;;;17.23;100.00;100242.56;5009584;28;20128;-65
2021/07/27 01:15:57;;;;;;;8.32;5.57;;;;;;;17.20;100.00;100242.09;5008851;28;20048;-65
2021/07/27 01:18:53;;;;;;;8.93;5.57;;;;;;;17.19;100.00;100237.75;5008919;28;20053;-64
2021/07/27 01:39:56;;;;;;;10.07;6.70;;;;;;;17.41;100.00;100232.25;5006445;28;20049;-65
2021/07/27 01:42:40;;;;;;;10.10;7.18;;;;;;;17.46;100.00;100237.06;4994570;28;20477;-65
2021/07/27 01:45:23;;;;;;;12.07;7.00;;;;;;;17.42;100.00;100238.47;5008700;28;20049;-65
2021/07/27 01:48:07;;;;;;;10.23;7.13;;;;;;;17.44;100.00;100250.75;5008658;28;20049;-65
2021/07/27 01:50:51;;;;;;;12.63;7.25;;;;;;;17.43;100.00;100241.00;5008390;28;20049;-65
2021/07/27 01:53:38;;;;;;;12.00;6.53;;;;;;;17.43;100.00;100241.00;5008588;28;20134;-65
2021/07/27 01:56:23;;;;;;;11.18;7.15;;;;;;;17.44;100.00;100242.66;5007902;28;20129;-65
2021/07/27 01:59:10;;;;;;;8.18;6.30;;;;;;;17.41;100.00;100248.41;4994360;28;20518;-65
2021/07/27 02:01:56;;;;;;;10.30;7.50;;;;;;;17.39;100.00;100250.47;4993569;28;20513;-65
2021/07/27 02:04:40;;;;;;;9.00;7.15;;;;;;;17.43;100.00;100246.38;4994819;28;20073;-66
2021/07/27 02:07:24;;;;;;;11.40;7.43;;;;;;;17.44;100.00;100239.13;4994621;28;20050;-66
2021/07/27 02:10:11;;;;;;;9.95;6.75;;;;;;;17.46;100.00;100237.91;5008324;28;20049;-65
2021/07/27 02:13:02;;;;;;;12.27;7.32;;;;;;;17.47;100.00;100242.28;5008857;28;20057;-65
2021/07/27 02:15:46;;;;;;;13.25;7.55;;;;;;;17.49;100.00;100234.84;4995291;28;20096;-65
2021/07/27 02:18:30;;;;;;;15.07;7.38;;;;;;;17.48;100.00;100232.31;5008162;28;20518;-66
2021/07/27 02:21:14;;;;;;;10.63;7.63;;;;;;;17.47;100.00;100236.88;5008200;28;20097;-65
2021/07/27 02:23:59;;;;;;;12.30;7.53;;;;;;;17.49;100.00;100239.41;5007784;28;20096;-65
2021/07/27 02:26:43;;;;;;;9.77;7.13;;;;;;;17.46;100.00;100237.91;5007823;28;20096;-65
2021/07/27 02:29:27;;;;;;;10.75;7.35;;;;;;;17.45;100.00;100238.94;5007939;28;20169;-65
2021/07/27 02:32:11;;;;;;;13.32;7.47;;;;;;;17.44;100.00;100241.81;4993945;28;20057;-64
2021/07/27 02:34:56;;;;;;;11.48;7.63;;;;;;;17.44;100.00;100241.81;4993849;28;20104;-66
2021/07/27 02:37:39;;;;;;;10.88;7.07;;;;;;;17.43;100.00;100246.38;4994170;28;20053;-65
2021/07/27 02:40:23;;;;;;;9.07;7.18;;;;;;;17.38;100.00;100251.50;5007432;28;20546;-65
2021/07/27 02:43:07;;;;;;;9.40;7.50;;;;;;;17.38;100.00;100240.72;5019690;22;20527;-69
2021/07/27 02:45:52;;;;;;;12.88;7.28;;;;;;;17.36;100.00;100244.59;4979986;28;20423;-69
2021/07/27 02:48:36;;;;;;;12.48;7.30;;;;;;;17.32;100.00;100246.00;4993396;28;20470;-69
2021/07/27 02:51:20;;;;;;;9.55;7.57;;;;;;;17.31;100.00;100247.84;4979800;28;20065;-69
2021/07/27 02:54:07;;;;;;;11.23;7.03;;;;;;;17.33;100.00;100237.72;4980077;28;20506;-69
2021/07/27 02:56:51;;;;;;;10.80;7.50;;;;;;;17.39;100.00;100253.16;4993432;28;20049;-68
2021/07/27 02:59:35;;;;;;;11.15;7.55;;;;;;;17.43;100.00;100243.69;4979545;28;20419;-69
2021/07/27 03:02:26;;;;;;;10.57;7.85;;;;;;;17.47;100.00;100247.66;4979648;28;20173;-68
2021/07/27 03:05:14;;;;;;;10.65;7.28;;;;;;;17.46;100.00;100246.00;4993605;28;20049;-68
2021/07/27 03:08:09;;;;;;;10.57;7.47;;;;;;;17.49;100.00;100245.63;4979834;28;20104;-69
2021/07/27 03:10:53;;;;;;;9.27;7.28;;;;;;;17.50;100.00;100252.69;4980087;28;20127;-69
2021/07/27 03:13:37;;;;;;;8.38;7.38;;;;;;;17.48;100.00;100248.50;4993281;28;20045;-68
2021/07/27 03:16:24;;;;;;;10.40;7.55;;;;;;;17.46;100.00;100248.69;4979517;28;20097;-68
2021/07/27 03:19:08;;;;;;;10.05;7.70;;;;;;;17.46;100.00;100246.00;4979387;28;20057;-69
2021/07/27 03:21:52;;;;;;;11.70;6.97;;;;;;;17.48;100.00;100260.13;4979290;28;20534;-68
2021/07/27 03:24:36;;;;;;;9.48;7.50;;;;;;;17.47;100.00;100258.44;4979425;28;20048;-68
2021/07/27 03:27:19;;;;;;;12.02;8.20;;;;;;;17.42;100.00;100260.03;4979605;28;20093;-68
2021/07/27 03:30:04;;;;;;;11.45;7.40;;;;;;;17.41;100.00;100261.06;4979101;28;20126;-68
2021/07/27 03:32:49;;;;;;;10.30;7.60;;;;;;;17.40;100.00;100260.22;4978938;28;20052;-68
2021/07/27 03:35:33;;;;;;;11.55;7.20;;;;;;;17.33;100.00;100256.59;4979118;28;20045;-69
2021/07/27 03:38:17;;;;;;;13.13;6.85;;;;;;;17.31;100.00;100258.59;4979276;28;20507;-69
2021/07/27 03:41:05;;;;;;;12.38;7.00;;;;;;;17.30;100.00;100265.03;4979295;28;20045;-68
2021/07/27 03:43:49;;;;;;;9.85;7.22;;;;;;;17.25;100.00;100256.69;4979057;28;20415;-69
2021/07/27 03:46:33;;;;;;;11.45;7.35;;;;;;;17.23;100.00;100261.44;4979267;28;20571;-69
2021/07/27 03:49:17;;;;;;;7.93;6.90;;;;;;;17.25;100.00;100270.16;4979214;28;20134;-68
2021/07/27 03:52:01;;;;;;;8.93;7.32;;;;;;;17.27;100.00;100261.88;4978797;28;20054;-69
2021/07/27 03:54:45;;;;;;;9.73;7.35;;;;;;;17.31;100.00;100258.59;4992861;28;20622;-69
2021/07/27 03:57:29;;;;;;;10.27;6.38;;;;;;;17.35;100.00;100259.97;4979090;28;20057;-68
2021/07/27 04:00:14;;;;;;;8.98;6.90;;;;;;;17.42;100.00;100254.66;4979123;28;20066;-69
2021/07/27 04:03:02;;;;;;;15.43;7.60;;;;;;;17.45;100.00;100260.50;4978758;28;20130;-68
2021/07/27 04:05:47;;;;;;;10.43;7.10;;;;;;;17.48;100.00;100265.50;4992825;28;20096;-69
2021/07/27 04:08:30;;;;;;;8.55;6.97;;;;;;;17.51;100.00;100256.22;4979023;28;20057;-69
2021/07/27 04:11:15;;;;;;;8.80;6.93;;;;;;;17.49;100.00;100256.41;4978972;28;20049;-69
2021/07/27 04:13:58;;;;;;;9.98;7.40;;;;;;;17.53;100.00;100260.41;4978578;28;20088;-68
2021/07/27 04:16:42;;;;;;;12.18;6.90;;;;;;;17.55;100.00;100258.34;4978901;28;20407;-69
2021/07/27 04:19:27;;;;;;;9.80;7.38;;;;;;;17.56;100.00;100257.31;4978992;28;20129;-69
2021/07/27 04:22:10;;;;;;;8.63;6.63;;;;;;;17.59;100.00;100258.81;4978972;28;20053;-69
2021/07/27 04:24:57;;;;;;;11.13;7.22;;;;;;;17.61;100.00;100254.06;4995483;28;20053;-69
2021/07/27 04:27:41;;;;;;;10.98;7.38;;;;;;;17.62;100.00;100251.16;4982259;28;20068;-69
2021/07/27 04:30:25;;;;;;;10.13;7.47;;;;;;;17.63;100.00;100252.00;4982481;28;20065;-68
2021/07/27 04:33:09;;;;;;;9.75;6.47;;;;;;;17.66;100.00;100255.16;4982619;28;20096;-69
2021/07/27 04:35:53;;;;;;;9.02;6.07;;;;;;;17.66;100.00;100262.41;4982244;28;20068;-68
2021/07/27 04:38:38;;;;;;;8.90;6.80;;;;;;;17.67;100.00;100258.69;4982297;28;20049;-67
2021/07/27 04:41:22;;;;;;;9.07;6.80;;;;;;;17.75;100.00;100256.72;4982036;28;20052;-69
2021/07/27 04:44:06;;;;;;;10.25;6.05;;;;;;;17.77;100.00;100254.66;4982232;28;20045;-68
2021/07/27 04:46:50;;;;;;;10.75;6.55;;;;;;;17.79;100.00;100258.00;4981803;28;20096;-69
2021/07/27 04:49:34;;;;;;;7.65;6.20;;;;;;;17.88;100.00;100251.47;4995915;28;20507;-68
2021/07/27 04:52:22;;;;;;;10.35;6.68;;;;;;;17.88;100.00;100254.16;4982293;28;20097;-68
2021/07/27 04:55:06;;;;;;;8.18;6.57;;;;;;;17.98;100.00;100246.59;4982058;28;20089;-69
2021/07/27 04:57:50;;;;;;;10.73;6.40;;;;;;;18.04;100.00;100253.94;4981683;28;20049;-68
2021/07/27 05:00:34;;;;;;;8.40;6.45;;;;;;;18.10;100.00;100245.06;4982023;28;20128;-68
2021/07/27 05:03:18;;;;;;;9.68;6.25;;;;;;;18.16;100.00;100249.69;4981543;28;20129;-68
2021/07/27 05:06:08;;;;;;;7.30;6.28;;;;;;;18.25;100.00;100240.44;4982086;28;20072;-68
2021/07/27 05:08:53;;;;;;;9.35;6.32;;;;;;;18.33;100.00;100234.91;4995938;28;20053;-69
2021/07/27 05:11:37;;;;;;;8.73;6.00;;;;;;;18.39;100.00;100224.16;4981456;28;20052;-67
2021/07/27 05:14:20;;;;;;;8.35;5.70;;;;;;;18.54;100.00;100232.19;4981384;28;20058;-69
2021/07/27 05:17:11;;;;;;;8.63;6.63;;;;;;;18.69;100.00;100236.44;4981436;28;20100;-69
2021/07/27 05:19:55;;;;;;;9.15;5.50;;;;;;;18.90;100.00;100235.56;4981478;28;20507;-68
2021/07/27 05:22:39;;;;;;;11.15;5.90;;;;;;;19.02;100.00;100228.56;4981465;28;20053;-69
2021/07/27 05:25:23;;;;;;;8.57;6.20;;;;;;;19.20;100.00;100223.53;4981441;28;20073;-68
2021/07/27 05:28:08;;;;;;;7.63;6.28;;;;;;;19.31;100.00;100222.94;4981386;28;20125;-68
2021/07/27 05:30:52;;;;;;;11.98;6.05;;;;;;;19.40;100.00;100219.84;4995042;28;20189;-69
2021/07/27 05:33:36;;;;;;;8.07;5.88;;;;;;;19.55;100.00;100217.84;4981067;28;20049;-69
2021/07/27 05:36:20;;;;;;;12.20;5.97;;;;;;;19.69;100.00;100216.03;4994568;28;20411;-68
2021/07/27 05:39:04;;;;;;;7.55;5.95;;;;;;;19.76;100.00;100215.00;4981148;28;20133;-69
2021/07/27 05:41:47;;;;;;;10.40;5.93;;;;;;;19.93;100.00;100215.44;4980713;28;20137;-68
2021/07/27 05:44:32;;;;;;;9.40;6.20;;;;;;;20.07;100.00;100204.47;4981085;28;20052;-67
2021/07/27 05:47:16;;;;;;;11.38;6.20;;;;;;;20.20;100.00;100206.38;4981070;28;20041;-68
2021/07/27 05:49:59;;;;;;;9.32;6.40;;;;;;;20.11;100.00;100208.44;4981060;28;20049;-69
2021/07/27 05:52:46;;;;;;;6.70;5.60;;;;;;;20.03;100.00;100202.34;4994539;28;20528;-69
2021/07/27 05:55:30;;;;;;;7.20;6.15;;;;;;;19.96;100.00;100205.06;4994549;28;20085;-69
2021/07/27 05:58:14;;;;;;;11.93;6.82;;;;;;;19.96;100.00;100207.75;4980922;28;20084;-68
2021/07/27 06:00:58;;;;;;;8.35;6.95;;;;;;;20.02;100.00;100204.22;4980865;28;20053;-68
2021/07/27 06:03:42;;;;;;;10.60;7.22;;;;;;;20.04;100.00;100207.59;4994259;28;20116;-69
2021/07/27 06:06:30;;;;;;;8.68;7.30;;;;;;;20.01;100.00;100213.38;4980674;28;20049;-69
2021/07/27 06:09:14;;;;;;;11.68;7.13;;;;;;;20.16;100.00;100213.22;4980818;28;20463;-68
2021/07/27 06:11:58;;;;;;;11.30;8.35;;;;;;;20.13;100.00;100217.16;4980448;28;20435;-69
2021/07/27 06:14:42;;;;;;;9.40;7.88;;;;;;;20.24;100.00;100219.28;4980568;28;20149;-68
2021/07/27 06:17:26;;;;;;;11.70;8.50;;;;;;;20.13;100.00;100227.19;4980692;28;20058;-69
2021/07/27 06:20:10;;;;;;;9.15;7.78;;;;;;;20.19;100.00;100231.78;4980431;28;20150;-69
2021/07/27 06:22:54;;;;;;;12.52;8.02;;;;;;;20.31;99.36;100227.41;4980036;28;20119;-69
2021/07/27 06:25:38;;;;;;;9.65;7.40;;;;;;;20.41;99.63;100225.13;4980398;28;20052;-69
2021/07/27 06:28:22;;;;;;;11.00;7.55;;;;;;;20.51;98.12;100220.13;4980038;28;20049;-69
2021/07/27 06:31:11;;;;;;;9.38;7.22;;;;;;;20.49;98.87;100224.88;4980254;28;20049;-69
2021/07/27 06:33:56;;;;;;;9.23;7.55;;;;;;;20.61;98.69;100234.91;4980688;28;20187;-69
2021/07/27 06:36:40;;;;;;;15.10;9.20;;;;;;;20.66;96.12;100228.84;4980143;28;20101;-69
2021/07/27 06:39:24;;;;;;;10.98;9.18;;;;;;;20.83;96.12;100220.06;4979884;28;20048;-68
2021/07/27 06:42:08;;;;;;;10.93;8.27;;;;;;;20.98;91.95;100222.56;4980126;28;20048;-69
2021/07/27 06:44:52;;;;;;;11.85;8.35;;;;;;;21.00;90.41;100225.91;4980046;28;20471;-69
2021/07/27 06:47:36;;;;;;;12.38;8.18;;;;;;;21.00;90.54;100215.91;4979391;28;20141;-68
2021/07/27 06:50:20;;;;;;;11.50;7.15;;;;;;;21.18;90.07;100227.72;4979605;28;20507;-69
2021/07/27 06:53:04;;;;;;;8.50;6.80;;;;;;;21.31;89.86;100230.44;4979679;28;20049;-69
2021/07/27 06:55:48;;;;;;;8.27;6.20;;;;;;;21.42;88.11;100229.75;4979583;28;20093;-68
2021/07/27 06:58:31;;;;;;;7.68;5.90;;;;;;;21.59;87.07;100238.25;4979550;28;20101;-69
2021/07/27 07:01:15;;;;;;;;;;;;;;;21.57;85.33;100246.59;4979866;28;20112;-69
2021/07/27 07:03:59;;;;;;;12.17;5.90;;;;;;;21.85;83.16;100236.25;4979341;28;20291;-69
2021/07/27 07:06:43;;;;;;;5.68;5.07;;;;;;;22.04;81.59;100235.31;4979939;28;20049;-68
2021/07/27 07:09:27;;;;;;;9.15;5.93;;;;;;;21.91;82.27;100250.84;4979318;28;20084;-69
2021/07/27 07:12:13;;;;;;;;;;;;;;;21.81;81.85;100254.00;4979662;28;20527;-69
2021/07/27 07:14:57;;;;;;;9.13;5.50;;;;;;;21.65;82.88;100249.09;4979948;28;19921;-69
2021/07/27 07:17:41;;;;;;;9.07;5.22;;;;;;;21.79;83.01;100255.28;4979465;28;20053;-69
2021/07/27 07:20:27;;;;;;;8.60;5.40;;;;;;;21.89;81.58;100247.50;4979453;28;20057;-68
2021/07/27 07:23:11;;;;;;;7.40;5.50;;;;;;;21.87;80.50;100250.44;4979641;28;20053;-69
2021/07/27 07:25:55;;;;;;;9.30;5.45;;;;;;;21.85;79.59;100251.69;4979130;28;20113;-69
2021/07/27 07:28:39;;;;;;;9.80;5.55;;;;;;;21.92;79.34;100252.50;4979442;28;20096;-69
2021/07/27 07:31:23;;;;;;;7.50;5.28;;;;;;;21.86;79.98;100251.50;4992981;28;20052;-69
2021/07/27 07:34:07;;;;;;;;;;;;;;;21.97;79.45;100264.38;4979857;28;20133;-69
2021/07/27 07:36:51;;;;;;;9.13;5.40;;;;;;;22.14;80.02;100268.25;4978868;28;20294;-69
2021/07/27 07:39:35;;;;;;;;;;;;;;;22.05;79.97;100277.69;4979875;28;20263;-69
2021/07/27 07:42:19;;;;;;;7.73;5.00;;;;;;;22.20;79.94;100270.06;4978904;28;19924;-69
2021/07/27 07:45:03;;;;;;;7.75;5.50;;;;;;;22.18;80.19;100272.19;4978974;28;20514;-69
2021/07/27 07:47:48;;;;;;;8.38;5.35;;;;;;;22.21;80.26;100271.72;4979462;28;20088;-69
2021/07/27 07:50:32;;;;;;;6.35;5.25;;;;;;;22.11;80.49;100276.00;4979221;28;20093;-69
2021/07/27 07:53:16;;;;;;;9.50;5.47;;;;;;;22.08;81.35;100266.38;4978800;28;20048;-69
2021/07/27 07:56:00;;;;;;;;;;;;;;;22.46;78.74;100258.22;4979489;28;20049;-68
2021/07/27 07:58:45;;;;;;;19.23;5.70;;;;;;;22.85;76.37;100258.72;4981636;28;19921;-68
2021/07/27 08:01:29;;;;;;;14.27;5.25;;;;;;;22.92;75.38;100259.47;4982776;28;20451;-69
2021/07/27 08:04:13;;;;;;;6.55;5.55;;;;;;;22.91;75.18;100246.13;4982675;28;20053;-69
2021/07/27 08:06:56;;;;;;;;;;;;;;;23.15;75.24;100246.13;4983393;28;20045;-66
2021/07/27 08:09:40;;;;;;;8.37;5.83;;;;;;;23.37;73.44;100258.22;4983052;28;19928;-70
2021/07/27 08:12:24;;;;;;;8.20;5.10;;;;;;;23.26;73.49;100256.25;4982889;28;20423;-69
2021/07/27 08:15:08;;;;;;;17.45;6.45;;;;;;;23.45;72.93;100254.34;4982835;28;20054;-69
2021/07/27 08:17:53;;;;;;;8.15;5.78;;;;;;;23.49;70.93;100256.41;4982574;28;20088;-69
2021/07/27 08:20:37;;;;;;;8.38;6.15;;;;;;;23.39;71.92;100245.22;4982518;28;20088;-69
2021/07/27 08:23:21;;;;;;;6.03;5.43;;;;;;;23.44;73.00;100255.41;4982268;28;20057;-69
2021/07/27 08:26:05;;;;;;;8.35;5.35;;;;;;;23.41;72.44;100259.41;4982643;28;20049;-69
2021/07/27 08:28:49;;;;;;;;;;;;;;;23.27;71.73;100248.91;4983048;28;20052;-69
2021/07/27 08:31:33;;;;;;;7.07;5.50;;;;;;;23.38;71.62;100249.00;4982703;28;19920;-69
2021/07/27 08:34:18;;;;;;;7.95;6.45;;;;;;;23.24;71.01;100263.78;4982761;28;20049;-69
2021/07/27 08:37:03;;;;;;;7.97;6.07;;;;;;;23.24;72.09;100258.34;4982338;28;20133;-69
2021/07/27 08:39:47;;;;;;;7.25;5.47;;;;;;;23.30;71.54;100254.72;4982211;28;20104;-69
2021/07/27 08:42:31;;;;;;;9.05;6.32;;;;;;;23.49;70.13;100256.41;5010667;23;20097;-65
2021/07/27 08:45:15;;;;;;;13.23;6.13;;;;;;;23.68;68.36;100252.59;5015710;28;20518;-65
2021/07/27 08:47:59;;;;;;;8.73;5.95;;;;;;;24.05;68.05;100245.22;5015269;28;20141;-66
2021/07/27 08:50:44;;;;;;;6.80;5.95;;;;;;;24.05;66.42;100246.03;5001677;28;20506;-66
2021/07/27 08:53:29;;;;;;;7.85;6.60;;;;;;;24.51;65.58;100248.91;5015883;28;20461;-65
2021/07/27 08:56:13;;;;;;;9.23;6.13;;;;;;;24.91;63.09;100245.28;5020816;28;20107;-66
2021/07/27 08:58:56;;;;;;;;;;;;;;;25.58;60.01;100239.19;5021560;28;20055;-65
2021/07/27 09:01:41;;;;;;;7.72;5.78;;;;;;;25.36;60.26;100242.78;5020814;28;20432;-65
2021/07/27 09:04:27;;;;;;;6.50;5.45;;;;;;;26.14;57.84;100238.41;5020999;28;20103;-66
2021/07/27 09:07:11;;;;;;;9.55;5.70;;;;;;;26.50;57.01;100232.47;5020789;28;20442;-66
2021/07/27 09:09:55;;;;;;;7.55;5.95;;;;;;;26.77;54.92;100236.25;5020071;28;20048;-65
2021/07/27 09:12:50;;;;;;;;;;;;;;;26.71;54.62;100237.22;5021215;28;20094;-66
2021/07/27 09:15:39;;;;;;;6.65;5.93;;;;;;;27.23;55.51;100240.25;5020729;28;19924;-65
2021/07/27 09:18:23;;;;;;;9.10;6.28;;;;;;;27.17;55.44;100245.91;5020734;28;20427;-66
2021/07/27 09:21:07;;;;;;;10.02;6.18;;;;;;;27.37;53.90;100248.94;5020722;28;20049;-66
2021/07/27 09:23:51;;;;;;;10.93;5.78;;;;;;;27.28;55.39;100244.97;5020466;28;20469;-65
2021/07/27 09:26:36;;;;;;;9.57;6.30;;;;;;;27.22;54.63;100252.28;5020743;28;20048;-66
2021/07/27 09:29:23;;;;;;;5.97;5.35;;;;;;;27.41;54.45;100255.56;5020862;28;20052;-66
2021/07/27 09:32:14;;;;;;;8.02;5.88;;;;;;;27.31;52.85;100253.50;5034141;28;20052;-66
2021/07/27 09:35:05;;;;;;;7.95;5.80;;;;;;;27.07;53.00;100264.88;5020131;28;20106;-66
2021/07/27 09:38:05;;;;;;;13.40;5.85;;;;;;;26.79;53.43;100266.91;5034399;28;20501;-65
2021/07/27 09:40:52;;;;;;;7.93;5.97;;;;;;;26.68;53.25;100265.94;5020142;28;20068;-66
2021/07/27 09:43:37;;;;;;;7.55;6.07;;;;;;;26.17;56.31;100270.69;5034843;28;20044;-66
2021/07/27 09:46:22;;;;;;;7.70;6.75;;;;;;;25.91;56.28;100272.09;5020033;28;20418;-65
2021/07/27 09:49:06;;;;;;;8.57;6.57;;;;;;;26.02;56.80;100259.50;5020349;28;20056;-66
2021/07/27 09:51:50;;;;;;;;;;;;;;;25.80;57.51;100251.09;5020921;28;20060;-66
2021/07/27 09:54:35;;;;;;;7.80;5.47;;;;;;;25.96;57.07;100244.06;5020208;28;19920;-66
2021/07/27 09:57:19;;;;;;;8.63;6.00;;;;;;;26.16;57.94;100253.44;5019973;28;20044;-66
2021/07/27 10:00:03;;;;;;;;;;;;;;;26.41;57.23;100253.94;5020330;28;20052;-66
2021/07/27 10:02:48;;;;;;;;;;;;;;;25.93;56.93;100260.94;5020317;28;20014;-66
2021/07/27 10:05:32;;;;;;;10.07;6.43;;;;;;;25.70;57.73;100258.25;5033599;28;19976;-65
2021/07/27 10:08:35;;;;;;;7.30;6.07;;;;;;;25.50;58.21;100250.47;5019750;28;20095;-65
2021/07/27 10:11:19;;;;;;;8.43;6.63;;;;;;;25.90;57.73;100254.06;5033774;28;20168;-66
2021/07/27 10:14:16;;;;;;;8.13;6.18;;;;;;;25.69;59.13;100251.13;5033564;28;20422;-65
2021/07/27 10:17:02;;;;;;;7.32;6.43;;;;;;;25.62;58.33;100251.28;5019671;28;20068;-65
2021/07/27 10:19:48;;;;;;;9.63;6.50;;;;;;;25.68;58.30;100261.22;5019404;28;20123;-65
2021/07/27 10:22:31;;;;;;;11.60;6.53;;;;;;;25.86;57.81;100262.94;5018522;28;20056;-65
2021/07/27 10:25:17;;;;;;;;;;;;;;;26.15;56.99;100251.00;5019984;28;20068;-65
2021/07/27 10:28:01;;;;;;;7.75;6.35;;;;;;;27.05;55.17;100247.88;5019657;28;20008;-66
2021/07/27 10:30:45;;;;;;;7.75;5.80;;;;;;;27.28;54.14;100256.75;5019491;28;20098;-66
2021/07/27 10:33:29;;;;;;;9.07;6.53;;;;;;;26.93;53.57;100258.09;5019344;28;20051;-65
2021/07/27 10:36:24;;;;;;;11.68;6.00;;;;;;;27.04;53.64;100252.56;5019439;28;20129;-66
2021/07/27 10:39:19;;;;;;;7.30;6.07;;;;;;;26.83;55.27;100255.22;5019308;28;20525;-66
2021/07/27 10:42:06;;;;;;;;;;;;;;;26.94;55.87;100245.28;5019458;28;20052;-66
2021/07/27 10:44:52;;;;;;;7.88;5.38;;;;;;;26.73;56.27;100240.53;5019145;28;19963;-66
2021/07/27 10:47:39;;;;;;;8.48;6.03;;;;;;;26.34;56.08;100236.84;5019436;28;20099;-65
2021/07/27 10:50:28;;;;;;;7.45;6.03;;;;;;;26.20;57.24;100243.72;5033032;28;20419;-66
2021/07/27 10:53:17;;;;;;;7.22;6.38;;;;;;;25.98;57.21;100239.19;5018919;28;20068;-66
2021/07/27 10:56:08;;;;;;;12.27;7.35;;;;;;;26.04;57.24;100232.75;5019726;28;20083;-66
2021/07/27 10:58:52;;;;;;;7.25;6.43;;;;;;;26.12;56.81;100235.09;5019375;28;20462;-66
2021/07/27 11:01:36;;;;;;;7.03;6.32;;;;;;;26.41;56.71;100228.47;5018860;28;20053;-66
2021/07/27 11:04:26;;;;;;;8.93;6.43;;;;;;;26.98;56.24;100220.72;5032815;28;20049;-66
2021/07/27 11:07:14;;;;;;;6.70;6.00;;;;;;;27.55;54.18;100215.75;5018838;28;20509;-66
2021/07/27 11:09:59;;;;;;;7.78;6.60;;;;;;;28.07;51.82;100217.78;5032721;28;20052;-66
2021/07/27 11:12:42;;;;;;;10.35;6.50;;;;;;;28.66;51.20;100219.41;5018444;28;20179;-66
2021/07/27 11:15:27;;;;;;;;;;;;;;;29.01;49.44;100216.13;5033028;28;20521;-66
2021/07/27 11:18:15;;;;;;;;;;;;;;;29.38;48.56;100217.72;5019142;28;19920;-66
2021/07/27 11:21:00;;;;;;;7.90;5.55;;;;;;;29.67;47.15;100213.47;5018388;28;19963;-66
2021/07/27 11:23:44;;;;;;;7.40;5.93;;;;;;;29.63;46.01;100195.06;5018544;28;20124;-66
2021/07/27 11:26:37;;;;;;;9.85;7.10;;;;;;;29.70;47.01;100193.72;5018760;28;20145;-66
2021/07/27 11:29:21;;;;;;;7.95;5.85;;;;;;;29.99;46.64;100187.47;5018481;28;20044;-66
2021/07/27 11:32:13;;;;;;;8.45;5.95;;;;;;;30.43;45.16;100187.81;5032111;28;20179;-66
2021/07/27 11:34:57;;;;;;;9.00;6.22;;;;;;;29.69;44.74;100202.22;5018636;28;20057;-65
2021/07/27 11:37:42;;;;;;;9.57;5.53;;;;;;;28.63;46.53;100187.03;5018462;28;20101;-65
2021/07/27 11:40:28;;;;;;;10.40;6.15;;;;;;;28.92;46.59;100184.78;5018458;28;20095;-66
2021/07/27 11:43:13;;;;;;;6.82;6.18;;;;;;;29.13;44.93;100179.16;5018207;28;20048;-65
2021/07/27 11:46:03;;;;;;;8.35;6.60;;;;;;;29.53;45.97;100186.78;5018223;28;20411;-66
2021/07/27 11:48:54;;;;;;;9.95;6.68;;;;;;;29.21;46.55;100189.63;5018321;28;20100;-66
2021/07/27 11:51:38;;;;;;;8.55;6.15;;;;;;;29.98;45.69;100192.41;5018416;28;20087;-66
2021/07/27 11:54:24;;;;;;;8.73;6.43;;;;;;;30.50;43.64;100191.94;5018006;28;20071;-66
2021/07/27 11:57:18;;;;;;;10.05;6.18;;;;;;;30.07;45.04;100194.38;5017908;28;20100;-66
2021/07/27 12:00:07;;;;;;;9.07;6.70;;;;;;;29.87;45.25;100188.00;5018258;28;20048;-66
2021/07/27 12:02:51;;;;;;;6.40;5.80;;;;;;;30.49;43.58;100168.28;5018109;28;20063;-66
2021/07/27 12:05:34;;;;;;;7.38;6.00;;;;;;;30.64;43.29;100173.78;5032319;28;20394;-66
2021/07/27 12:08:19;;;;;;;5.80;5.22;;;;;;;30.27;42.31;100177.91;5032107;28;20056;-66
2021/07/27 12:11:03;;;;;;;7.47;5.88;;;;;;;30.13;43.37;100176.81;5018236;28;20210;-65
2021/07/27 12:13:47;;;;;;;7.07;5.25;;;;;;;30.23;42.22;100169.38;5017711;28;20124;-65
2021/07/27 12:16:31;;;;;;;6.68;5.38;;;;;;;31.02;41.77;100164.06;5032024;28;20132;-66
2021/07/27 12:19:15;;;;;;;9.57;6.55;;;;;;;31.13;39.76;100162.97;5018051;28;20208;-66
2021/07/27 12:22:00;;;;;;;6.03;5.18;;;;;;;31.54;39.71;100157.03;5017838;28;20079;-66
2021/07/27 12:24:44;;;;;;;6.15;5.50;;;;;;;32.40;38.22;100154.56;5017913;28;20056;-66
2021/07/27 12:27:28;;;;;;;7.38;5.78;;;;;;;32.17;38.03;100150.59;5032141;28;20048;-66
2021/07/27 12:30:12;;;;;;;6.18;5.57;;;;;;;32.63;37.72;100148.28;5017966;28;20157;-66
2021/07/27 12:32:56;;;;;;;7.18;5.53;;;;;;;33.61;35.47;100145.53;5017648;28;20053;-66
2021/07/27 12:35:40;;;;;;;7.00;5.82;;;;;;;34.40;34.20;100130.78;5031486;28;20099;-66
2021/07/27 12:38:24;;;;;;;8.57;6.10;;;;;;;35.40;31.69;100132.47;5018096;28;20083;-66
2021/07/27 12:41:08;;;;;;;6.38;5.50;;;;;;;34.24;31.29;100121.94;5017850;28;20099;-66
2021/07/27 12:43:52;;;;;;;6.97;6.07;;;;;;;32.61;34.15;100122.91;5017399;28;20099;-66
2021/07/27 12:46:36;;;;;;;6.18;5.30;;;;;;;32.81;34.97;100133.78;5021599;28;20478;-66
2021/07/27 12:49:20;;;;;;;6.97;5.97;;;;;;;32.85;34.97;100137.59;5021249;28;20516;-66
2021/07/27 12:52:09;;;;;;;6.28;5.68;;;;;;;33.00;33.83;100129.16;5021229;28;20063;-66
2021/07/27 12:54:54;;;;;;;5.95;5.30;;;;;;;33.72;33.56;100130.47;5021758;28;20095;-66
2021/07/27 12:57:37;;;;;;;6.00;5.40;;;;;;;33.91;32.84;100123.00;5021242;28;20044;-66
2021/07/27 13:00:21;;;;;;;5.80;5.20;;;;;;;33.37;33.54;100119.88;5020922;28;20182;-66
2021/07/27 13:03:05;;;;;;;9.93;5.28;;;;;;;33.00;35.10;100123.63;5021017;28;20124;-66